Time;durP1;ratioP1;P1;durP2;ratioP2;P2;SDS_P1;SDS_P2;PMS_P1;PMS_P2;Temp;Humidity;BMP_temperature;BMP_pressure;BME280_temperature;BME280_humidity;BME280_pressure;Samples;Min_cycle;Max_cycle;Signal;HPM_P1;HPM_P2
2022/08/10 00:01:49;;;;;;;6.32;3.70;;;;;;;20.90;100.00;97036.06;5077396;28;20092;-45
2022/08/10 00:04:19;;;;;;;4.13;3.35;;;;;;;20.96;100.00;97034.47;5077055;28;20603;-44
2022/08/10 00:06:51;;;;;;;7.80;3.08;;;;;;;20.95;100.00;97030.94;5084315;28;20080;-42
2022/08/10 00:09:20;;;;;;;5.93;3.50;;;;;;;20.88;100.00;97029.25;5076603;28;20084;-43
2022/08/10 00:11:48;;;;;;;4.45;3.63;;;;;;;20.78;100.00;97030.41;5083217;28;20526;-39
2022/08/10 00:14:17;;;;;;;5.40;3.67;;;;;;;20.66;100.00;97031.16;5076338;28;20099;-44
2022/08/10 00:16:45;;;;;;;4.20;3.30;;;;;;;20.87;100.00;97033.78;5077167;28;20072;-43
2022/08/10 00:19:13;;;;;;;4.93;3.53;;;;;;;20.69;100.00;97026.22;5076531;28;20087;-45
2022/08/10 00:21:44;;;;;;;5.20;3.58;;;;;;;20.75;100.00;97032.66;5075413;28;20549;-44
2022/08/10 00:24:14;;;;;;;6.38;4.07;;;;;;;20.68;100.00;97027.25;5078062;28;20075;-42
2022/08/10 00:26:43;;;;;;;6.32;3.55;;;;;;;20.61;100.00;97027.22;5080993;28;20534;-40
2022/08/10 00:29:31;;;;;;;7.10;3.42;;;;;;;20.53;100.00;97026.50;5069417;28;20108;-40
2022/08/10 00:32:00;;;;;;;5.15;3.15;;;;;;;20.66;100.00;97025.78;5069380;28;20095;-41
2022/08/10 00:34:28;;;;;;;3.95;3.55;;;;;;;20.54;100.00;97029.00;5080174;28;20588;-41
2022/08/10 00:36:57;;;;;;;3.63;3.15;;;;;;;20.57;100.00;97031.28;5079084;28;20488;-42
2022/08/10 00:39:28;;;;;;;5.68;3.50;;;;;;;20.62;100.00;97025.34;5080637;28;20464;-40
2022/08/10 00:41:56;;;;;;;;;;;;;;;20.69;100.00;97023.56;5078804;28;20068;-40
2022/08/10 00:44:37;;;;;;;4.60;3.25;;;;;;;20.56;100.00;97023.44;5070028;28;19962;-44
2022/08/10 00:47:05;;;;;;;;;;;;;;;20.61;100.00;97024.53;5086398;28;20509;-40
2022/08/10 00:49:33;;;;;;;8.95;3.50;;;;;;;20.67;100.00;97019.41;5085101;28;19967;-43
2022/08/10 00:52:02;;;;;;;8.98;3.83;;;;;;;20.77;100.00;97025.25;5070691;28;20092;-40
2022/08/10 00:54:32;;;;;;;4.57;3.38;;;;;;;20.73;100.00;97021.31;5069940;28;20135;-40
2022/08/10 00:57:01;;;;;;;4.72;3.50;;;;;;;20.55;100.00;97029.84;5069750;28;20451;-41
2022/08/10 00:59:45;;;;;;;4.22;3.80;;;;;;;20.54;100.00;97030.84;5075888;28;20443;-40
2022/08/10 01:02:25;;;;;;;6.78;3.58;;;;;;;20.58;100.00;97022.25;5072797;28;20090;-41
2022/08/10 01:04:54;;;;;;;5.13;3.75;;;;;;;20.56;100.00;97023.44;5078716;28;20478;-42
2022/08/10 01:07:38;;;;;;;4.30;3.53;;;;;;;20.14;100.00;97025.09;5078240;28;20083;-43
2022/08/10 01:10:19;;;;;;;4.82;3.35;;;;;;;20.12;100.00;97027.13;5071835;28;20083;-44
2022/08/10 01:12:51;;;;;;;5.20;3.60;;;;;;;20.34;100.00;97026.13;5069913;28;20092;-40
2022/08/10 01:15:24;;;;;;;8.23;3.70;;;;;;;20.33;100.00;97020.94;5074309;28;20530;-44
2022/08/10 01:17:56;;;;;;;5.15;3.70;;;;;;;20.28;100.00;97020.69;5071152;28;20583;-42
2022/08/10 01:20:32;;;;;;;9.75;3.63;;;;;;;20.32;100.00;97022.78;5073941;28;20083;-40
2022/08/10 01:23:25;;;;;;;5.72;3.60;;;;;;;20.37;100.00;97019.53;5068503;28;20091;-44
2022/08/10 01:26:06;;;;;;;7.15;3.58;;;;;;;20.36;100.00;97020.56;5069076;28;20080;-39
2022/08/10 01:29:08;;;;;;;8.00;4.10;;;;;;;20.48;100.00;97021.72;5068983;28;20514;-40
2022/08/10 01:31:41;;;;;;;4.78;3.47;;;;;;;20.39;100.00;97020.16;5079658;28;20072;-40
2022/08/10 01:34:13;;;;;;;6.80;3.97;;;;;;;20.20;100.00;97028.84;5086966;28;20082;-43
2022/08/10 01:36:48;;;;;;;10.38;4.05;;;;;;;20.17;100.00;97029.25;5080142;28;20091;-40
2022/08/10 01:39:23;;;;;;;5.82;3.70;;;;;;;20.20;100.00;97028.84;5068991;28;20076;-37
2022/08/10 01:41:55;;;;;;;7.03;3.60;;;;;;;20.05;100.00;97032.41;5071970;28;20076;-43
2022/08/10 01:44:30;;;;;;;8.68;3.40;;;;;;;20.14;100.00;97031.28;5088847;28;20072;-40
2022/08/10 01:49:59;;;;;;;8.10;3.85;;;;;;;20.41;100.00;97020.81;5074862;28;20080;-41
2022/08/10 01:52:29;;;;;;;5.15;3.88;;;;;;;19.95;100.00;97023.84;5082814;28;20072;-41
2022/08/10 01:54:58;;;;;;;4.28;3.88;;;;;;;20.22;100.00;97026.81;5071889;28;20078;-42
2022/08/10 01:57:29;;;;;;;5.78;3.33;;;;;;;20.45;100.00;97016.72;5075048;28;20075;-40
2022/08/10 01:59:59;;;;;;;4.45;3.42;;;;;;;20.24;100.00;97024.78;5081479;28;20072;-40
2022/08/10 02:02:31;;;;;;;4.47;3.38;;;;;;;20.39;100.00;97017.50;5086609;28;20095;-39
2022/08/10 02:05:02;;;;;;;4.22;3.60;;;;;;;20.30;100.00;97018.63;5077797;28;20076;-42
2022/08/10 02:07:31;;;;;;;4.55;3.88;;;;;;;20.15;100.00;97024.06;5070550;28;20083;-40
2022/08/10 02:10:03;;;;;;;5.55;3.30;;;;;;;20.16;100.00;97023.03;5079528;28;20471;-41
2022/08/10 02:12:34;;;;;;;4.22;3.42;;;;;;;20.28;100.00;97020.69;5077848;28;20095;-41
2022/08/10 02:15:05;;;;;;;5.38;3.80;;;;;;;20.33;100.00;97015.56;5072170;28;20121;-40
2022/08/10 02:17:37;;;;;;;7.18;3.90;;;;;;;20.36;100.00;97013.34;5088061;28;20091;-43
2022/08/10 02:20:29;;;;;;;5.25;4.10;;;;;;;20.24;100.00;97009.53;5075080;28;20644;-40
2022/08/10 02:23:01;;;;;;;5.00;4.00;;;;;;;20.09;100.00;97014.94;5085430;28;20123;-47
2022/08/10 02:25:29;;;;;;;;;;;;;;;20.25;100.00;97010.38;5082098;28;20083;-43
2022/08/10 02:28:11;;;;;;;5.00;3.92;;;;;;;20.24;100.00;97009.53;5074628;28;19960;-40
2022/08/10 02:31:00;;;;;;;4.10;3.70;;;;;;;20.16;100.00;97009.66;5079065;28;20141;-45
2022/08/10 02:33:32;;;;;;;4.78;3.92;;;;;;;19.91;100.00;97003.84;5074499;28;20076;-42
2022/08/10 02:36:05;;;;;;;5.07;4.45;;;;;;;19.86;100.00;97007.09;5088353;28;20096;-39
2022/08/10 02:38:38;;;;;;;4.68;3.85;;;;;;;19.86;100.00;97006.28;5090083;28;20076;-41
2022/08/10 02:41:29;;;;;;;5.18;4.50;;;;;;;19.98;100.00;97003.91;5084480;28;20546;-40
2022/08/10 02:44:23;;;;;;;7.10;4.45;;;;;;;19.97;100.00;97004.94;5072853;28;20476;-45
2022/08/10 02:47:14;;;;;;;5.20;4.45;;;;;;;20.08;100.00;97002.56;5085580;28;20197;-44
2022/08/10 02:49:49;;;;;;;5.38;4.50;;;;;;;19.91;100.00;97010.03;5079308;28;20099;-40
2022/08/10 02:52:22;;;;;;;8.82;4.32;;;;;;;19.95;100.00;97006.97;5085577;28;20087;-43
2022/08/10 02:54:54;;;;;;;7.32;4.32;;;;;;;19.90;100.00;97010.22;5073609;28;20102;-47
2022/08/10 02:57:26;;;;;;;5.00;4.18;;;;;;;20.11;100.00;97004.88;5072463;28;20080;-39
2022/08/10 03:00:03;;;;;;;6.72;4.30;;;;;;;19.97;100.00;97003.09;5077011;28;20095;-46
2022/08/10 03:02:35;;;;;;;8.23;4.10;;;;;;;19.98;100.00;96995.88;5077829;28;20091;-42
2022/08/10 03:05:08;;;;;;;4.55;4.05;;;;;;;19.79;100.00;97003.53;5073742;28;20088;-40
2022/08/10 03:07:39;;;;;;;5.38;4.85;;;;;;;20.05;100.00;96999.47;5086799;28;20074;-41
2022/08/10 03:10:15;;;;;;;7.40;4.75;;;;;;;20.02;100.00;96997.16;5088069;28;20086;-42
2022/08/10 03:12:44;;;;;;;5.65;4.18;;;;;;;19.91;100.00;96999.31;5083591;28;20217;-43
2022/08/10 03:15:13;;;;;;;5.10;4.60;;;;;;;19.90;100.00;96994.16;5079893;28;20096;-45
2022/08/10 03:17:44;;;;;;;5.53;4.60;;;;;;;19.85;100.00;96993.88;5077677;28;20091;-40
2022/08/10 03:20:29;;;;;;;5.93;4.30;;;;;;;19.69;100.00;96992.31;5082611;28;20084;-39
2022/08/10 03:23:10;;;;;;;5.47;4.60;;;;;;;19.75;100.00;96988.00;5086940;28;20079;-47
2022/08/10 03:25:39;;;;;;;5.15;4.35;;;;;;;19.66;100.00;96990.81;5081201;28;20091;-42
2022/08/10 03:28:08;;;;;;;5.45;4.20;;;;;;;19.69;100.00;96992.31;5086873;28;20186;-41
2022/08/10 03:30:37;;;;;;;7.32;4.80;;;;;;;19.75;100.00;96990.69;5082932;28;20572;-45
2022/08/10 03:33:06;;;;;;;5.65;4.65;;;;;;;19.59;100.00;96989.06;5082900;28;20693;-40
2022/08/10 03:35:36;;;;;;;7.55;4.70;;;;;;;19.61;100.00;96987.88;5075019;28;20088;-40
2022/08/10 03:38:05;;;;;;;5.13;4.17;;;;;;;19.54;100.00;96984.25;5086214;28;20079;-41
2022/08/10 03:40:35;;;;;;;5.43;4.50;;;;;;;19.45;100.00;96991.56;5087284;28;20099;-45
2022/08/10 03:43:16;;;;;;;7.03;4.70;;;;;;;19.45;100.00;96988.91;5077549;28;20542;-42
2022/08/10 03:45:47;;;;;;;5.90;4.50;;;;;;;19.54;100.00;96988.78;5090979;28;20095;-39
2022/08/10 03:48:23;;;;;;;7.20;4.60;;;;;;;19.56;100.00;96982.22;5073272;28;20096;-40
2022/08/10 03:51:14;;;;;;;4.50;4.10;;;;;;;19.34;100.00;96991.22;5083871;28;20079;-39
2022/08/10 03:53:42;;;;;;;;;;;;;;;19.58;100.00;96984.72;5079879;28;20501;-40
2022/08/10 03:56:31;;;;;;;5.40;4.15;;;;;;;19.71;100.00;96986.75;5073156;28;19952;-43
2022/08/10 03:59:00;;;;;;;4.85;4.38;;;;;;;19.54;100.00;96986.09;5082899;28;20091;-45
2022/08/10 04:01:29;;;;;;;7.60;4.82;;;;;;;19.45;100.00;96996.09;5076579;28;20526;-38
2022/08/10 04:04:18;;;;;;;6.70;4.18;;;;;;;19.48;100.00;96994.88;5081488;28;20072;-39
2022/08/10 04:06:54;;;;;;;6.85;4.05;;;;;;;19.49;100.00;96996.56;5081509;28;20522;-45
2022/08/10 04:09:25;;;;;;;7.43;4.57;;;;;;;19.63;100.00;97004.56;5082606;28;20079;-45
2022/08/10 04:12:13;;;;;;;5.60;4.40;;;;;;;19.65;100.00;96999.88;5070924;28;20161;-44
2022/08/10 04:14:42;;;;;;;5.88;4.30;;;;;;;19.59;100.00;97005.94;5072770;28;20436;-45
2022/08/10 04:17:19;;;;;;;5.75;4.32;;;;;;;19.45;100.00;96999.59;5086898;28;20545;-43
2022/08/10 04:20:12;;;;;;;7.07;4.40;;;;;;;19.68;100.00;97007.53;5082477;28;20072;-40
2022/08/10 04:22:43;;;;;;;5.45;4.13;;;;;;;19.67;100.00;97005.03;5074476;28;20087;-39
2022/08/10 04:25:12;;;;;;;6.55;4.00;;;;;;;19.97;100.00;97005.78;5083002;28;20439;-43
2022/08/10 04:27:41;;;;;;;4.25;3.85;;;;;;;20.22;100.00;97006.22;5077934;28;20078;-41
2022/08/10 04:30:10;;;;;;;7.60;4.50;;;;;;;20.90;100.00;97000.41;5077473;28;20064;-39
2022/08/10 04:32:40;;;;;;;6.05;4.43;;;;;;;21.42;100.00;96996.38;5082685;28;20072;-40
2022/08/10 04:35:10;;;;;;;5.23;4.30;;;;;;;21.74;100.00;97005.56;5082291;28;20075;-42
2022/08/10 04:37:39;;;;;;;;;;;;;;;21.84;100.00;96999.81;5088449;28;20079;-44
2022/08/10 04:40:17;;;;;;;9.23;4.53;;;;;;;22.05;100.00;97003.16;5084381;28;20345;-42
2022/08/10 04:42:59;;;;;;;7.30;4.30;;;;;;;22.26;100.00;97004.06;5074168;28;20056;-41
2022/08/10 04:45:33;;;;;;;5.80;4.60;;;;;;;23.10;95.29;97002.63;5083199;28;20079;-40
2022/08/10 04:48:20;;;;;;;6.93;5.75;;;;;;;23.38;90.00;96996.94;5081573;28;20471;-41
2022/08/10 04:51:09;;;;;;;5.78;4.20;;;;;;;23.72;84.64;97008.44;5071757;28;20134;-40
2022/08/10 04:53:46;;;;;;;8.20;5.60;;;;;;;23.45;84.41;97014.72;5089561;28;20086;-42
2022/08/10 04:56:36;;;;;;;7.97;5.70;;;;;;;23.96;81.65;97006.88;5075061;28;20084;-42
2022/08/10 04:59:05;;;;;;;6.55;5.82;;;;;;;23.60;82.79;97010.94;5071439;28;20080;-42
2022/08/10 05:01:33;;;;;;;6.57;5.93;;;;;;;23.50;82.71;97013.25;5080374;28;20460;-43
2022/08/10 05:04:22;;;;;;;9.25;6.18;;;;;;;23.83;79.24;97010.44;5069366;28;20084;-40
2022/08/10 05:07:10;;;;;;;6.22;5.63;;;;;;;23.88;79.14;97014.16;5077169;28;20482;-49
2022/08/10 05:09:43;;;;;;;6.15;5.55;;;;;;;24.17;78.23;97018.13;5075281;28;20098;-41
2022/08/10 05:12:33;;;;;;;6.43;5.47;;;;;;;24.55;73.18;97019.16;5071816;28;20060;-40
2022/08/10 05:15:07;;;;;;;6.72;6.00;;;;;;;24.59;71.62;97009.56;5069382;28;20126;-41
2022/08/10 05:17:35;;;;;;;6.95;5.85;;;;;;;24.49;70.64;97020.00;5079867;28;20091;-42
2022/08/10 05:20:05;;;;;;;6.78;4.95;;;;;;;23.80;75.72;97019.78;5074093;28;20103;-44
2022/08/10 05:22:36;;;;;;;5.72;5.13;;;;;;;23.82;77.97;97015.00;5079560;28;20076;-44
2022/08/10 05:25:06;;;;;;;8.15;5.15;;;;;;;23.82;79.38;97019.59;5076088;28;20084;-39
2022/08/10 05:27:36;;;;;;;5.38;4.68;;;;;;;23.85;79.94;97025.38;5071745;28;20467;-39
2022/08/10 05:30:06;;;;;;;7.13;5.13;;;;;;;23.92;81.92;97023.47;5087312;28;20075;-40
2022/08/10 05:32:36;;;;;;;4.95;4.53;;;;;;;24.00;79.49;97022.38;5083054;28;20083;-40
2022/08/10 05:35:25;;;;;;;5.57;4.60;;;;;;;23.66;83.01;97027.06;5087970;28;20079;-39
2022/08/10 05:37:55;;;;;;;4.82;4.38;;;;;;;24.11;76.98;97023.56;5079439;28;20501;-43
2022/08/10 05:40:42;;;;;;;4.93;4.43;;;;;;;24.13;81.17;97030.38;5068857;28;20087;-43
2022/08/10 05:43:20;;;;;;;7.40;3.40;;;;;;;23.35;91.32;97035.03;5080201;28;20063;-40
2022/08/10 05:45:50;;;;;;;5.28;3.10;;;;;;;23.60;86.33;97025.22;5081662;28;20091;-42
2022/08/10 05:48:40;;;;;;;4.70;3.30;;;;;;;23.05;92.39;97034.69;5079095;28;20080;-41
2022/08/10 05:51:29;;;;;;;4.65;3.55;;;;;;;22.34;100.00;97029.94;5075043;28;20076;-43
2022/08/10 05:53:58;;;;;;;6.88;3.50;;;;;;;22.32;100.00;97038.19;5069221;28;20080;-39
2022/08/10 05:56:36;;;;;;;5.18;3.55;;;;;;;22.47;100.00;97032.59;5069334;28;20496;-43
2022/08/10 05:59:30;;;;;;;4.72;3.60;;;;;;;22.21;100.00;97028.88;5075880;28;20419;-40
2022/08/10 06:02:22;;;;;;;4.07;3.45;;;;;;;22.71;100.00;97023.94;5081045;28;20076;-42
2022/08/10 06:05:10;;;;;;;4.75;3.50;;;;;;;22.56;100.00;97026.00;5076565;28;20152;-45
2022/08/10 06:07:41;;;;;;;5.40;3.75;;;;;;;22.75;100.00;97021.66;5086539;28;20194;-44
2022/08/10 06:10:13;;;;;;;7.85;3.65;;;;;;;22.55;100.00;97020.84;5081515;28;20076;-41
2022/08/10 06:16:03;;;;;;;6.03;3.40;;;;;;;23.24;100.00;97019.56;5081082;28;20078;-39
2022/08/10 06:18:31;;;;;;;5.57;3.60;;;;;;;23.13;100.00;97026.41;5087131;28;20503;-39
2022/08/10 06:21:00;;;;;;;5.30;3.22;;;;;;;23.61;100.00;97024.19;5075378;28;20079;-41
2022/08/10 06:23:29;;;;;;;7.70;3.30;;;;;;;23.66;100.00;97021.69;5074622;28;20561;-43
2022/08/10 06:25:57;;;;;;;4.93;3.50;;;;;;;23.33;100.00;97018.28;5080595;28;20072;-40
2022/08/10 06:28:43;;;;;;;3.83;3.42;;;;;;;23.61;99.52;97018.00;5076517;28;20087;-43
2022/08/10 06:31:31;;;;;;;4.53;3.70;;;;;;;23.65;98.51;97024.59;5076394;28;20080;-44
2022/08/10 06:34:20;;;;;;;4.75;3.40;;;;;;;23.90;95.21;97020.16;5075510;28;20145;-43
2022/08/10 06:36:49;;;;;;;7.90;3.10;;;;;;;24.24;90.12;97018.09;5068665;28;20088;-43
2022/08/10 06:39:17;;;;;;;5.57;2.97;;;;;;;23.12;100.00;97019.34;5074812;28;20117;-41
2022/08/10 06:42:09;;;;;;;8.60;3.20;;;;;;;24.29;89.37;97015.56;5068394;28;20084;-43
2022/08/10 06:44:51;;;;;;;8.27;3.00;;;;;;;24.22;88.87;97016.66;5086186;28;20743;-46
2022/08/10 06:47:24;;;;;;;4.25;2.97;;;;;;;24.15;88.51;97022.91;5075799;28;20095;-42
2022/08/10 06:49:55;;;;;;;6.22;2.97;;;;;;;24.90;82.51;97015.94;5068456;28;20099;-41
2022/08/10 06:52:30;;;;;;;3.90;3.03;;;;;;;24.32;87.51;97019.69;5074543;28;20068;-42
2022/08/10 06:54:59;;;;;;;6.72;2.90;;;;;;;24.14;84.82;97020.44;5069448;28;20506;-44
2022/08/10 06:57:29;;;;;;;3.77;2.80;;;;;;;24.15;84.47;97016.69;5082062;28;20073;-41
2022/08/10 06:59:59;;;;;;;5.88;2.72;;;;;;;24.34;83.30;97018.44;5079128;28;20068;-41
2022/08/10 07:02:36;;;;;;;5.15;3.00;;;;;;;24.82;77.31;97009.78;5072699;28;20466;-41
2022/08/10 07:05:06;;;;;;;5.55;2.85;;;;;;;24.90;75.68;97011.38;5078990;28;20447;-44
2022/08/10 07:07:37;;;;;;;4.13;2.97;;;;;;;24.85;75.18;97014.75;5078444;28;20142;-42
2022/08/10 07:10:07;;;;;;;5.20;3.00;;;;;;;25.14;72.90;97008.88;5089528;28;20548;-42
2022/08/10 07:12:36;;;;;;;6.07;2.90;;;;;;;25.10;73.71;97003.91;5077515;28;20541;-42
2022/08/10 07:15:07;;;;;;;3.20;2.70;;;;;;;25.05;72.29;97001.06;5078077;28;20075;-39
2022/08/10 07:17:37;;;;;;;4.93;2.70;;;;;;;24.65;72.77;97008.69;5085110;28;20087;-43
2022/08/10 07:20:09;;;;;;;5.53;2.92;;;;;;;24.80;73.02;97006.47;5084933;28;20083;-39
2022/08/10 07:22:37;;;;;;;;;;;;;;;25.60;68.17;96999.44;5086414;28;20121;-41
2022/08/10 07:25:26;;;;;;;6.10;2.80;;;;;;;25.69;66.12;96995.38;5071548;28;19947;-40
2022/08/10 07:27:56;;;;;;;4.00;2.80;;;;;;;26.06;64.63;96995.34;5086008;28;20036;-40
2022/08/10 07:30:29;;;;;;;5.75;2.70;;;;;;;25.51;66.51;97001.63;5077527;28;20095;-40
2022/08/10 07:33:01;;;;;;;5.53;2.60;;;;;;;26.06;64.60;96990.75;5088648;28;20075;-41
2022/08/10 07:35:32;;;;;;;3.97;2.40;;;;;;;25.61;65.46;96993.81;5077972;28;20501;-41
2022/08/10 07:38:17;;;;;;;5.55;2.95;;;;;;;26.49;60.11;96995.09;5083363;28;20083;-41
2022/08/10 07:40:46;;;;;;;6.18;2.67;;;;;;;26.26;59.64;96995.88;5082158;28;20482;-40
2022/08/10 07:43:16;;;;;;;4.00;2.70;;;;;;;25.86;60.55;96990.19;5070659;28;20511;-41
2022/08/10 07:45:45;;;;;;;3.85;2.50;;;;;;;26.05;61.54;96986.41;5077534;28;20484;-47
2022/08/10 07:48:16;;;;;;;6.90;2.80;;;;;;;25.94;60.59;96989.88;5077014;28;20088;-42
2022/08/10 07:50:46;;;;;;;7.22;2.78;;;;;;;26.40;57.58;96991.91;5077200;28;20095;-41
2022/08/10 07:53:19;;;;;;;3.78;2.72;;;;;;;26.59;57.10;96987.25;5077121;28;20079;-46
2022/08/10 07:55:48;;;;;;;6.05;2.42;;;;;;;27.24;53.37;96988.22;5080047;28;20093;-38
2022/08/10 07:58:48;;;;;;;6.07;2.60;;;;;;;27.00;52.47;96990.91;5070997;28;20447;-42
2022/08/10 08:01:22;;;;;;;6.22;2.50;;;;;;;26.83;52.85;96984.56;5082680;28;20256;-45
2022/08/10 08:03:52;;;;;;;3.42;2.35;;;;;;;26.62;53.47;96988.66;5071526;28;20080;-43
2022/08/10 08:06:38;;;;;;;5.10;2.30;;;;;;;27.12;51.04;96991.78;5083680;28;20498;-40
2022/08/10 08:09:06;;;;;;;5.15;2.67;;;;;;;27.40;50.69;96985.59;5086935;28;20083;-45
2022/08/10 08:11:36;;;;;;;4.10;2.38;;;;;;;27.12;50.04;96991.78;5075681;28;20060;-42
2022/08/10 08:14:06;;;;;;;4.35;2.40;;;;;;;27.17;48.60;96991.06;5084146;28;20514;-45
2022/08/10 08:16:36;;;;;;;3.67;2.22;;;;;;;27.67;50.07;96985.88;5076465;28;20056;-41
2022/08/10 08:19:07;;;;;;;4.78;2.53;;;;;;;27.51;47.66;96991.22;5081821;28;20076;-43
2022/08/10 08:21:55;;;;;;;3.88;2.45;;;;;;;27.02;48.51;96991.50;5077274;28;20080;-45
2022/08/10 08:24:45;;;;;;;4.18;2.30;;;;;;;27.46;47.84;96997.38;5075063;28;20088;-42
2022/08/10 08:27:15;;;;;;;3.77;2.43;;;;;;;27.80;47.28;96997.53;5072003;28;20099;-44
2022/08/10 08:29:45;;;;;;;3.47;2.42;;;;;;;27.68;45.35;96992.13;5076515;28;21028;-41
2022/08/10 08:32:18;;;;;;;3.45;2.10;;;;;;;28.08;45.49;96992.13;5080776;28;20106;-41
2022/08/10 08:34:49;;;;;;;6.10;2.20;;;;;;;27.62;45.67;97001.22;5076615;28;20454;-40
2022/08/10 08:37:19;;;;;;;4.88;2.15;;;;;;;28.24;43.57;96995.09;5078124;28;20534;-41
2022/08/10 08:40:12;;;;;;;4.35;2.30;;;;;;;27.49;45.71;96996.06;5083093;28;20554;-40
2022/08/10 08:43:15;;;;;;;4.38;2.42;;;;;;;27.77;44.63;96998.00;5069692;28;20068;-42
2022/08/10 08:45:57;;;;;;;5.57;2.30;;;;;;;28.69;44.35;97005.13;5075204;28;20463;-42
2022/08/10 08:48:51;;;;;;;4.43;2.00;;;;;;;28.05;43.73;96999.94;5070684;28;20064;-41
2022/08/10 08:51:28;;;;;;;4.22;2.10;;;;;;;28.54;42.63;96997.56;5082828;28;20470;-40
2022/08/10 08:54:26;;;;;;;4.00;2.10;;;;;;;28.65;42.14;96999.38;5083073;28;20554;-42
2022/08/10 08:57:03;;;;;;;3.15;2.20;;;;;;;28.00;42.93;96992.50;5074779;28;20087;-40
2022/08/10 08:59:46;;;;;;;2.88;2.35;;;;;;;28.29;42.99;96992.50;5078639;28;20111;-45
2022/08/10 09:02:29;;;;;;;3.45;2.40;;;;;;;28.68;42.76;96993.44;5085673;28;20075;-41
2022/08/10 09:05:07;;;;;;;6.55;2.50;;;;;;;28.70;43.05;96987.75;5086303;28;20164;-44
2022/08/10 09:07:58;;;;;;;5.50;2.22;;;;;;;28.82;42.45;96992.03;5086922;28;20529;-45
2022/08/10 09:10:45;;;;;;;4.15;2.33;;;;;;;28.59;42.48;96990.31;5076441;28;20076;-45
2022/08/10 09:13:25;;;;;;;2.38;2.03;;;;;;;28.41;43.36;96990.56;5071351;28;20084;-40
2022/08/10 09:16:06;;;;;;;4.40;2.40;;;;;;;27.88;43.72;96989.84;5078332;28;20084;-40
2022/08/10 09:18:41;;;;;;;4.75;2.30;;;;;;;28.76;42.68;96974.00;5079919;28;20083;-41
2022/08/10 09:21:16;;;;;;;3.75;2.00;;;;;;;29.28;42.32;96981.84;5075481;28;20642;-40
2022/08/10 09:23:51;;;;;;;3.70;1.95;;;;;;;28.52;42.69;96988.81;5072306;28;20080;-41
2022/08/10 09:26:43;;;;;;;3.60;2.10;;;;;;;28.56;42.37;96989.97;5082566;28;20574;-44
2022/08/10 09:29:14;;;;;;;3.42;2.25;;;;;;;28.29;42.28;96992.50;5071859;28;20092;-46
2022/08/10 09:31:45;;;;;;;5.30;1.80;;;;;;;28.60;41.51;96996.59;5082332;28;20607;-45
2022/08/10 09:34:43;;;;;;;4.80;1.80;;;;;;;28.52;41.41;97008.63;5080511;28;20090;-40
2022/08/10 09:37:36;;;;;;;3.88;2.08;;;;;;;28.83;40.97;96990.94;5076288;28;20530;-42
2022/08/10 09:40:33;;;;;;;3.58;2.10;;;;;;;28.62;40.77;97002.56;5068714;28;20084;-42
2022/08/10 09:43:27;;;;;;;5.80;2.10;;;;;;;29.54;39.69;96990.34;5075118;28;20076;-43
2022/08/10 09:46:07;;;;;;;3.40;2.03;;;;;;;28.46;40.70;96984.38;5076255;28;20091;-41
2022/08/10 09:48:43;;;;;;;4.45;2.30;;;;;;;28.70;40.84;96990.47;5079968;28;20090;-40
2022/08/10 09:51:22;;;;;;;4.68;1.90;;;;;;;29.33;40.24;96986.56;5078020;28;20128;-41
2022/08/10 09:54:19;;;;;;;2.97;2.08;;;;;;;29.40;39.64;96987.19;5082126;28;20064;-48
2022/08/10 09:56:57;;;;;;;5.80;2.30;;;;;;;28.59;40.44;96995.72;5083269;28;20067;-42
2022/08/10 09:59:54;;;;;;;4.43;2.03;;;;;;;29.21;40.56;96996.69;5077867;28;20443;-44
2022/08/10 10:02:36;;;;;;;2.15;1.70;;;;;;;28.29;41.17;97006.06;5085842;28;20094;-40
2022/08/10 10:05:13;;;;;;;9.15;2.20;;;;;;;28.96;40.43;96980.84;5082464;28;20095;-43
2022/08/10 10:07:46;;;;;;;4.93;1.90;;;;;;;28.79;40.81;96983.56;5081177;28;20483;-44
2022/08/10 10:10:18;;;;;;;3.85;2.10;;;;;;;29.66;39.65;96991.06;5085215;28;20071;-40
2022/08/10 10:12:54;;;;;;;3.72;1.88;;;;;;;29.35;38.50;96989.81;5087942;28;20063;-45
2022/08/10 10:15:30;;;;;;;3.08;1.90;;;;;;;29.23;38.68;96986.41;5087678;28;20102;-41
2022/08/10 10:18:23;;;;;;;3.45;1.88;;;;;;;28.76;39.16;96981.34;5080778;28;20094;-41
2022/08/10 10:21:01;;;;;;;3.70;2.05;;;;;;;28.56;39.10;96979.97;5081883;28;20146;-45
2022/08/10 10:23:38;;;;;;;4.80;1.95;;;;;;;29.13;37.79;96975.41;5076189;28;20088;-41
2022/08/10 10:26:15;;;;;;;3.28;1.80;;;;;;;29.64;37.40;96978.81;5082344;28;20549;-41
2022/08/10 10:28:58;;;;;;;3.58;1.83;;;;;;;29.45;37.04;96981.81;5078272;28;20114;-41
2022/08/10 10:31:54;;;;;;;3.53;1.80;;;;;;;29.39;36.74;96980.13;5076480;28;20072;-43
2022/08/10 10:34:30;;;;;;;3.97;2.40;;;;;;;29.38;36.16;96974.91;5085161;28;20784;-42
2022/08/10 10:36:59;;;;;;;2.65;1.80;;;;;;;29.13;35.50;96973.50;5079097;28;20084;-43
2022/08/10 10:39:28;;;;;;;5.15;2.15;;;;;;;29.66;36.10;96968.50;5084744;28;20109;-46
2022/08/10 10:42:07;;;;;;;2.85;1.75;;;;;;;29.66;36.15;96963.88;5072256;28;20087;-46
2022/08/10 10:45:00;;;;;;;4.18;1.90;;;;;;;29.79;35.70;96973.53;5080473;28;20103;-45
2022/08/10 10:47:49;;;;;;;3.40;1.90;;;;;;;28.81;36.55;96959.72;5071870;28;20090;-44
2022/08/10 10:50:19;;;;;;;5.53;1.93;;;;;;;28.70;37.67;96958.75;5080623;28;20478;-44
2022/08/10 10:52:55;;;;;;;4.00;1.92;;;;;;;28.56;37.54;96969.13;5078286;28;20494;-42
2022/08/10 10:55:30;;;;;;;5.35;1.83;;;;;;;28.52;37.95;96965.22;5087775;28;20095;-43
2022/08/10 10:58:08;;;;;;;4.28;1.90;;;;;;;28.48;38.44;96963.25;5084625;28;20080;-40
2022/08/10 11:00:44;;;;;;;4.00;2.20;;;;;;;29.05;38.49;96957.66;5084689;28;20095;-41
2022/08/10 11:03:26;;;;;;;3.08;1.92;;;;;;;28.62;37.54;96949.09;5074323;28;20080;-43
2022/08/10 11:06:04;;;;;;;4.65;1.83;;;;;;;28.84;37.53;96948.38;5079649;28;20080;-46
2022/08/10 11:08:39;;;;;;;3.67;1.77;;;;;;;28.36;37.78;96947.84;5083041;28;20079;-44
2022/08/10 11:11:13;;;;;;;3.53;1.90;;;;;;;28.35;37.71;96958.94;5078657;28;20674;-41
2022/08/10 11:14:07;;;;;;;4.35;1.80;;;;;;;28.82;37.45;96945.06;5071906;28;20076;-42
2022/08/10 11:17:00;;;;;;;5.00;2.00;;;;;;;28.75;36.76;96945.22;5082105;28;20133;-42
2022/08/10 11:19:34;;;;;;;3.92;2.03;;;;;;;29.32;35.83;96939.53;5085915;28;20080;-43
2022/08/10 11:22:28;;;;;;;2.75;1.60;;;;;;;29.86;34.80;96938.81;5083181;28;20595;-46
2022/08/10 11:25:10;;;;;;;4.97;1.67;;;;;;;29.49;34.57;96944.91;5080996;28;20076;-45
2022/08/10 11:27:47;;;;;;;2.88;1.90;;;;;;;30.06;34.42;96943.63;5088255;28;20554;-43
2022/08/10 11:30:19;;;;;;;3.33;1.70;;;;;;;30.11;34.30;96946.44;5084091;28;20684;-43
2022/08/10 11:33:11;;;;;;;1.98;1.33;;;;;;;29.80;34.64;96951.56;5083814;28;20087;-46
2022/08/10 11:35:45;;;;;;;4.28;1.70;;;;;;;30.18;34.44;96947.06;5078131;28;20751;-41
2022/08/10 11:38:23;;;;;;;2.40;1.73;;;;;;;30.48;34.46;96948.41;5078380;28;20530;-45
2022/08/10 11:41:10;;;;;;;4.20;1.63;;;;;;;29.80;34.42;96943.41;5090426;28;20304;-42
2022/08/10 11:44:13;;;;;;;2.55;1.67;;;;;;;29.95;34.28;96947.34;5077275;28;20577;-46
2022/08/10 11:46:48;;;;;;;3.45;1.75;;;;;;;29.16;35.73;96939.59;5082734;28;20127;-44
2022/08/10 11:49:30;;;;;;;6.32;1.52;;;;;;;30.02;34.38;96939.81;5073863;28;20159;-42
2022/08/10 11:52:04;;;;;;;3.72;1.60;;;;;;;29.94;34.26;96943.81;5085477;28;20086;-40
2022/08/10 11:54:39;;;;;;;3.28;1.50;;;;;;;29.62;33.93;96940.19;5083581;28;20076;-45
2022/08/10 11:57:09;;;;;;;2.25;1.50;;;;;;;29.90;33.41;96945.38;5079014;28;20651;-42
2022/08/10 11:59:57;;;;;;;2.67;1.50;;;;;;;30.10;33.16;96938.50;5087545;28;20214;-43
2022/08/10 12:02:31;;;;;;;4.30;1.73;;;;;;;29.88;32.94;96944.84;5077628;28;20068;-42
2022/08/10 12:05:03;;;;;;;2.78;1.60;;;;;;;29.68;32.85;96922.84;5079796;28;20075;-44
2022/08/10 12:07:32;;;;;;;3.85;1.65;;;;;;;29.82;32.78;96934.97;5090118;28;20110;-46
2022/08/10 12:10:23;;;;;;;10.48;1.77;;;;;;;29.72;31.72;96937.56;5070945;28;20072;-42
2022/08/10 12:12:57;;;;;;;2.13;1.27;;;;;;;29.16;32.10;96910.53;5080558;28;20083;-39
2022/08/10 12:15:32;;;;;;;3.67;1.50;;;;;;;29.88;32.40;96928.50;5072551;28;20068;-41
2022/08/10 12:18:03;;;;;;;4.28;1.90;;;;;;;29.73;32.74;96936.50;5070670;28;20080;-42
2022/08/10 12:20:36;;;;;;;3.63;2.03;;;;;;;29.91;32.56;96935.34;5070251;28;20072;-39
2022/08/10 12:23:10;;;;;;;2.15;1.40;;;;;;;29.83;31.30;96922.19;5080680;28;20075;-44